Rottingdean, United Kingdom
Current Conditions -  °F | °C
As of 6:50 PM on Sunday 23 Nov 2014 (Local Time) from EGKA Reporting Station
Light Rain Light Rain  
Wind Chill: 42°   Ceiling: 3800
Heat Index: 45°   Visibility: 6mi
Dew Point: 43°   Wind: 5mph
Humidity: 93%   Direction: 340°NNW
Pressure: 30.06"   Gusts: NA
Location:  50.81°N, 0.06°W
Report Text: EGKA 231850Z 34004KT 9999 -RA FEW007 OVC038 07/06 Q1018
Loading
Personal Weather Stations






























Interactive Weather Map New forecast layout! Learn more

10-Day Weather Forecast

Advertisements
Track Severe Weather on mobile